createdAt,value
2019-02-04T00:00:25.963Z,6.8
2019-02-04T00:01:15.495Z,6.9
2019-02-04T00:02:05.768Z,6.8
2019-02-04T00:02:56.119Z,6.9
2019-02-04T00:03:46.773Z,7
2019-02-04T00:04:36.248Z,6.9
2019-02-04T00:05:26.020Z,6.8
2019-02-04T00:06:16.349Z,6.8
2019-02-04T00:07:10.329Z,6.9
2019-02-04T00:07:56.488Z,6.8
2019-02-04T00:08:46.547Z,6.8
2019-02-04T00:09:36.582Z,6.7
2019-02-04T00:10:26.380Z,6.6
2019-02-04T00:11:16.721Z,6.4
2019-02-04T00:12:06.767Z,6.6
2019-02-04T00:12:56.565Z,6.7
2019-02-04T00:13:46.892Z,6.8
2019-02-04T00:14:36.938Z,6.8
2019-02-04T00:15:27.060Z,6.5
2019-02-04T00:16:18.795Z,6.4
2019-02-04T00:17:07.114Z,6.4
2019-02-04T00:17:56.637Z,6.4
2019-02-04T00:18:46.772Z,6.3
2019-02-04T00:19:37.259Z,6.2
2019-02-04T00:20:27.342Z,6.1
2019-02-04T00:21:17.399Z,5.9
2019-02-04T00:22:07.462Z,5.8
2019-02-04T00:22:57.552Z,6.1
2019-02-04T00:23:47.301Z,6.4
2019-02-04T00:24:37.461Z,6.4
2019-02-04T00:25:29.389Z,6.3
2019-02-04T00:26:17.223Z,6.2
2019-02-04T00:27:07.799Z,6.1
2019-02-04T00:27:57.869Z,5.9
2019-02-04T00:28:47.394Z,5.8
2019-02-04T00:29:38.011Z,5.6
2019-02-04T00:30:27.493Z,5.4
2019-02-04T00:31:18.149Z,5.4
2019-02-04T00:32:07.896Z,5.3
2019-02-04T00:32:58.224Z,5.4
2019-02-04T00:33:48.281Z,5.3
2019-02-04T00:34:39.673Z,5.3
2019-02-04T00:35:27.879Z,5.2
2019-02-04T00:36:18.174Z,5.3
2019-02-04T00:37:08.286Z,5.4
2019-02-04T00:37:58.003Z,5.6
2019-02-04T00:38:48.649Z,5.7
2019-02-04T00:39:37.585Z,5.7
2019-02-04T00:40:43.395Z,5.7
2019-02-04T00:41:18.548Z,5.9
2019-02-04T00:42:08.034Z,5.9
2019-02-04T00:42:58.925Z,6
2019-02-04T00:43:49.833Z,6
2019-02-04T00:44:39.035Z,6.1
2019-02-04T00:45:29.160Z,6.1
2019-02-04T00:46:18.873Z,6.1
2019-02-04T00:47:08.999Z,6.2
2019-02-04T00:47:59.365Z,6.2
2019-02-04T00:48:49.155Z,6.4
2019-02-04T00:49:39.385Z,6.4
2019-02-04T00:50:29.442Z,6.3
2019-02-04T00:51:19.507Z,6.3
2019-02-04T00:52:09.310Z,6.3
2019-02-04T00:53:00.708Z,6.2
2019-02-04T00:53:49.675Z,6.2
2019-02-04T00:54:39.187Z,6.1
2019-02-04T00:55:29.872Z,6.2
2019-02-04T00:56:19.827Z,6.2
2019-02-04T00:57:09.670Z,6.2
2019-02-04T00:57:59.706Z,6.1
2019-02-04T00:58:50.123Z,6.1
2019-02-04T00:59:39.547Z,6.1
2019-02-04T01:00:30.239Z,6.1
2019-02-04T01:01:19.651Z,6.1
2019-02-04T01:02:11.002Z,6.1
2019-02-04T01:02:59.794Z,6.1
2019-02-04T01:03:50.404Z,6.2
2019-02-04T01:04:40.434Z,6.3
2019-02-04T01:05:30.756Z,6.2
2019-02-04T01:06:20.607Z,6
2019-02-04T01:07:10.331Z,6
2019-02-04T01:08:00.664Z,6
2019-02-04T01:08:50.451Z,6.1
2019-02-04T01:09:40.501Z,6.1
2019-02-04T01:10:30.834Z,6.1
2019-02-04T01:11:21.081Z,6.1
2019-02-04T01:12:10.966Z,5.9
2019-02-04T01:13:01.023Z,5.6
2019-02-04T01:13:50.790Z,5.5
2019-02-04T01:14:41.731Z,5.5
2019-02-04T01:15:30.752Z,5.4
2019-02-04T01:16:21.329Z,5.4
2019-02-04T01:17:11.008Z,5.3
2019-02-04T01:18:01.050Z,5.2
2019-02-04T01:18:51.502Z,5.2
2019-02-04T01:19:41.435Z,5.3
2019-02-04T01:20:30.762Z,5.4
2019-02-04T01:21:21.007Z,5.4
2019-02-04T01:22:11.616Z,5.4
2019-02-04T01:23:01.699Z,5.4
2019-02-04T01:23:53.434Z,5.4
2019-02-04T01:24:41.508Z,5.5
2019-02-04T01:25:31.609Z,5.6
2019-02-04T01:26:21.357Z,5.3
2019-02-04T01:27:11.969Z,5.2
2019-02-04T01:28:01.746Z,5.2
2019-02-04T01:28:52.069Z,5.6
2019-02-04T01:29:41.864Z,5.8
2019-02-04T01:30:32.197Z,5.8
2019-02-04T01:31:21.964Z,5.8
2019-02-04T01:32:12.061Z,5.9
2019-02-04T01:33:03.571Z,6
2019-02-04T01:33:52.436Z,6.3
2019-02-04T01:34:42.512Z,6.5
2019-02-04T01:35:32.568Z,6.4
2019-02-04T01:36:22.442Z,6.4
2019-02-04T01:37:12.648Z,6.4
2019-02-04T01:38:02.717Z,6.3
2019-02-04T01:38:52.793Z,6.2
2019-02-04T01:39:42.850Z,6.3
2019-02-04T01:40:32.911Z,6.2
2019-02-04T01:41:22.951Z,6.1
2019-02-04T01:42:13.233Z,6
2019-02-04T01:43:03.062Z,6
2019-02-04T01:43:53.140Z,6.3
2019-02-04T01:44:42.075Z,6.1
2019-02-04T01:45:33.841Z,6.1
2019-02-04T01:46:23.033Z,6.1
2019-02-04T01:47:20.451Z,6.3
2019-02-04T01:48:03.180Z,6.3
2019-02-04T01:48:53.467Z,6.1
2019-02-04T01:49:42.970Z,6.1
2019-02-04T01:50:33.329Z,5.9
2019-02-04T01:51:23.802Z,5.5
2019-02-04T01:52:13.702Z,5.4
2019-02-04T01:53:03.482Z,5.4
2019-02-04T01:53:53.818Z,5.4
2019-02-04T01:54:45.222Z,5.4
2019-02-04T01:55:33.662Z,5.4
2019-02-04T01:56:23.750Z,5.3
2019-02-04T01:57:13.880Z,5.3
2019-02-04T01:58:03.852Z,5.1
2019-02-04T01:58:54.167Z,5.3
2019-02-04T01:59:44.016Z,5.3
2019-02-04T02:00:34.047Z,5.3
2019-02-04T02:01:24.346Z,5.4
2019-02-04T02:02:13.871Z,5.5
2019-02-04T02:03:04.207Z,5.6
2019-02-04T02:03:56.052Z,5.8
2019-02-04T02:04:44.296Z,5.8
2019-02-04T02:05:33.814Z,5.7
2019-02-04T02:06:24.409Z,5.5
2019-02-04T02:07:14.494Z,5.3
2019-02-04T02:08:04.616Z,5.3
2019-02-04T02:08:54.884Z,5.4
2019-02-04T02:09:44.666Z,5.4
2019-02-04T02:10:34.764Z,5.6
2019-02-04T02:11:24.491Z,5.6
2019-02-04T02:12:14.824Z,5.6
2019-02-04T02:13:06.289Z,5.6
2019-02-04T02:13:54.659Z,5.5
2019-02-04T02:14:45.026Z,5.5
2019-02-04T02:15:35.061Z,5.3
2019-02-04T02:16:28.489Z,5
2019-02-04T02:17:27.318Z,4.9
2019-02-04T02:18:05.550Z,4.9
2019-02-04T02:18:55.285Z,4.9
2019-02-04T02:19:45.493Z,4.9
2019-02-04T02:20:35.698Z,4.9
2019-02-04T02:21:25.468Z,4.9
2019-02-04T02:22:16.178Z,4.9
2019-02-04T02:23:05.636Z,4.9
2019-02-04T02:23:55.690Z,5
2019-02-04T02:24:45.544Z,5
2019-02-04T02:25:36.923Z,5.1
2019-02-04T02:26:25.816Z,5.1
2019-02-04T02:27:15.917Z,5
2019-02-04T02:28:05.945Z,4.9
2019-02-04T02:28:56.270Z,4.9
2019-02-04T02:29:45.785Z,4.9
2019-02-04T02:30:36.216Z,4.8
2019-02-04T02:31:26.477Z,4.9
2019-02-04T02:32:16.263Z,4.8
2019-02-04T02:33:06.601Z,4.9
2019-02-04T02:33:55.794Z,4.8
2019-02-04T02:34:47.914Z,4.9
2019-02-04T02:35:35.927Z,5
2019-02-04T02:36:26.260Z,5.1
2019-02-04T02:37:16.862Z,5.1
2019-02-04T02:38:06.375Z,5.1
2019-02-04T02:38:56.430Z,5
2019-02-04T02:39:46.522Z,4.9
2019-02-04T02:40:37.350Z,4.9
2019-02-04T02:41:27.324Z,4.9
2019-02-04T02:42:16.907Z,4.8
2019-02-04T02:43:06.850Z,4.8
2019-02-04T02:43:58.295Z,4.8
2019-02-04T02:44:46.834Z,4.7
2019-02-04T02:45:37.215Z,4.6
2019-02-04T02:46:27.282Z,4.6
2019-02-04T02:47:17.339Z,4.6
2019-02-04T02:48:06.778Z,4.6
2019-02-04T02:48:57.552Z,4.6
2019-02-04T02:49:48.374Z,4.6
2019-02-04T02:50:37.531Z,4.6
2019-02-04T02:51:27.303Z,4.6
2019-02-04T02:52:17.920Z,4.6
2019-02-04T02:53:08.863Z,4.7
2019-02-04T02:53:57.764Z,4.8
2019-02-04T02:54:48.243Z,4.8
2019-02-04T02:55:38.145Z,4.8
2019-02-04T02:56:28.214Z,4.8
2019-02-04T02:57:18.243Z,4.9
2019-02-04T02:58:08.027Z,4.9
2019-02-04T02:58:58.443Z,4.9
2019-02-04T02:59:48.438Z,4.9
2019-02-04T03:00:37.948Z,5
2019-02-04T03:01:28.557Z,5.1
2019-02-04T03:02:20.306Z,5.2
2019-02-04T03:03:08.739Z,5.3
2019-02-04T03:03:58.458Z,5.4
2019-02-04T03:04:48.796Z,5.4
2019-02-04T03:08:21.068Z,5.3
2019-02-04T03:09:12.088Z,5.1
2019-02-04T03:10:01.171Z,4.9
2019-02-04T03:10:50.883Z,4.9
2019-02-04T03:11:41.170Z,4.9
2019-02-04T03:12:31.422Z,5
2019-02-04T03:13:21.293Z,5.1
2019-02-04T03:14:11.119Z,5.1
2019-02-04T03:15:01.833Z,5.1
2019-02-04T03:15:51.163Z,5.3
2019-02-04T03:16:41.502Z,5.2
2019-02-04T03:17:30.836Z,5.2
2019-02-04T03:18:23.386Z,5.2
2019-02-04T03:19:11.412Z,5.2
2019-02-04T03:20:01.757Z,5.3
2019-02-04T03:20:51.530Z,5.4
2019-02-04T03:21:41.843Z,5.4
2019-02-04T03:22:31.362Z,5.6
2019-02-04T03:23:21.991Z,5.7
2019-02-04T03:24:12.119Z,5.8
2019-02-04T03:25:01.966Z,5.8
2019-02-04T03:25:51.861Z,5.7
2019-02-04T03:26:42.345Z,5.5
2019-02-04T03:27:34.170Z,5.4
2019-02-04T03:28:22.024Z,5.3
2019-02-04T03:29:12.358Z,5.4
2019-02-04T03:30:02.468Z,5.6
2019-02-04T03:30:52.458Z,5.6
2019-02-04T03:31:49.311Z,5.6
2019-02-04T03:32:32.715Z,5.6
2019-02-04T03:33:22.605Z,5.6
2019-02-04T03:34:12.445Z,5.6
2019-02-04T03:35:02.569Z,5.6
2019-02-04T03:35:52.597Z,5.5
2019-02-04T03:36:43.658Z,5.5
2019-02-04T03:37:32.954Z,5.6
2019-02-04T03:38:22.826Z,5.6
2019-02-04T03:39:13.061Z,5.6
2019-02-04T03:40:03.026Z,5.6
2019-02-04T03:40:52.417Z,5.5
2019-02-04T03:41:43.258Z,5.6
2019-02-04T03:42:32.757Z,5.6
2019-02-04T03:43:23.086Z,5.6
2019-02-04T03:44:13.475Z,5.7
2019-02-04T03:45:03.366Z,5.8
2019-02-04T03:45:53.924Z,5.8
2019-02-04T03:46:43.591Z,5.7
2019-02-04T03:47:33.683Z,5.7
2019-02-04T03:48:22.873Z,5.7
2019-02-04T03:49:14.586Z,5.6
2019-02-04T03:50:03.662Z,5.7
2019-02-04T03:50:53.981Z,5.8
2019-02-04T03:51:43.986Z,5.7
2019-02-04T03:52:33.710Z,5.7
2019-02-04T03:53:23.765Z,5.6
2019-02-04T03:54:14.128Z,5.6
2019-02-04T03:55:03.897Z,5.4
2019-02-04T03:55:54.215Z,5.4
2019-02-04T03:56:44.017Z,5.3
2019-02-04T03:57:34.361Z,5.3
2019-02-04T03:58:25.425Z,5.3
2019-02-04T03:59:14.455Z,5.3
2019-02-04T04:00:04.589Z,5.2
2019-02-04T04:00:54.292Z,5.2
2019-02-04T04:01:44.619Z,5.1
2019-02-04T04:02:34.417Z,5.2
2019-02-04T04:03:24.735Z,5.2
2019-02-04T04:04:14.637Z,5.2
2019-02-04T04:05:04.895Z,5.3
2019-02-04T04:05:54.925Z,5.3
2019-02-04T04:06:44.724Z,5.3
2019-02-04T04:07:36.247Z,5.3
2019-02-04T04:08:25.157Z,5.4
2019-02-04T04:09:14.877Z,5.4
2019-02-04T04:10:04.934Z,5.4
2019-02-04T04:10:55.044Z,5.4
2019-02-04T04:11:45.319Z,5.1
2019-02-04T04:12:35.384Z,5
2019-02-04T04:13:25.551Z,5
2019-02-04T04:14:15.491Z,5.1
2019-02-04T04:15:05.291Z,5.1
2019-02-04T04:15:55.608Z,4.9
2019-02-04T04:16:46.283Z,5
2019-02-04T04:17:35.458Z,5
2019-02-04T04:18:25.221Z,4.9
2019-02-04T04:19:15.938Z,4.9
2019-02-04T04:20:06.556Z,4.9
2019-02-04T04:20:55.706Z,4.9
2019-02-04T04:21:45.759Z,5.1
2019-02-04T04:22:36.075Z,4.9
2019-02-04T04:23:25.850Z,4.9
2019-02-04T04:24:15.921Z,4.9
2019-02-04T04:25:06.461Z,4.9
2019-02-04T04:25:56.845Z,4.9
2019-02-04T04:26:46.361Z,4.9
2019-02-04T04:27:36.258Z,4.9
2019-02-04T04:28:26.468Z,5
2019-02-04T04:29:17.486Z,5
2019-02-04T04:30:06.596Z,5
2019-02-04T04:30:56.665Z,4.9
2019-02-04T04:31:46.432Z,4.9
2019-02-04T04:32:36.758Z,5
2019-02-04T04:33:26.653Z,5.1
2019-02-04T04:34:16.338Z,5.1
2019-02-04T04:35:07.917Z,5.1
2019-02-04T04:35:56.992Z,5
2019-02-04T04:36:47.073Z,4.9
2019-02-04T04:37:37.112Z,4.9
2019-02-04T04:38:27.840Z,4.9
2019-02-04T04:39:17.227Z,5
2019-02-04T04:40:07.292Z,4.9
2019-02-04T04:40:57.364Z,4.9
2019-02-04T04:41:47.235Z,4.9
2019-02-04T04:42:37.212Z,5
2019-02-04T04:43:27.529Z,5
2019-02-04T04:44:18.216Z,5.1
2019-02-04T04:45:07.634Z,5.1
2019-02-04T04:45:57.416Z,5.1
2019-02-04T04:46:47.215Z,5
2019-02-04T04:47:39.452Z,4.9
2019-02-04T04:48:29.459Z,4.9
2019-02-04T04:49:17.657Z,4.9
2019-02-04T04:50:07.979Z,4.9
2019-02-04T04:50:57.756Z,4.8
2019-02-04T04:51:47.829Z,4.9
2019-02-04T04:52:38.159Z,4.9
2019-02-04T04:53:27.941Z,4.9
2019-02-04T04:54:17.986Z,5
2019-02-04T04:55:07.512Z,5
2019-02-04T04:55:58.140Z,5.1
2019-02-04T04:56:49.416Z,5
2019-02-04T04:57:38.505Z,5
2019-02-04T04:58:28.563Z,5
2019-02-04T04:59:18.644Z,5
2019-02-04T05:00:08.435Z,5
2019-02-04T05:00:58.738Z,5
2019-02-04T05:01:48.778Z,5.1
2019-02-04T05:02:38.997Z,5
2019-02-04T05:03:28.635Z,5
2019-02-04T05:04:18.947Z,5
2019-02-04T05:05:08.780Z,4.9
2019-02-04T05:06:00.448Z,5
2019-02-04T05:06:49.140Z,5
2019-02-04T05:07:39.201Z,5
2019-02-04T05:08:28.953Z,4.9
2019-02-04T05:09:19.313Z,5
2019-02-04T05:10:09.360Z,5
2019-02-04T05:10:59.435Z,5.1
2019-02-04T05:11:49.492Z,5
2019-02-04T05:12:39.262Z,5
2019-02-04T05:13:29.591Z,5
2019-02-04T05:14:19.102Z,5
2019-02-04T05:15:11.435Z,5
2019-02-04T05:15:59.762Z,5
2019-02-04T05:16:49.839Z,5.1
2019-02-04T05:17:39.895Z,5.1
2019-02-04T05:18:41.067Z,5
2019-02-04T05:19:19.756Z,5
2019-02-04T05:20:10.059Z,5
2019-02-04T05:21:00.113Z,5
2019-02-04T05:21:49.907Z,5
2019-02-04T05:22:39.984Z,5
2019-02-04T05:23:30.035Z,5
2019-02-04T05:24:21.484Z,4.9
2019-02-04T05:25:10.413Z,4.9
2019-02-04T05:25:59.921Z,4.9
2019-02-04T05:26:50.246Z,4.9
2019-02-04T05:27:42.063Z,4.9
2019-02-04T05:28:30.633Z,4.9
2019-02-04T05:29:20.734Z,4.9
2019-02-04T05:30:10.513Z,4.9
2019-02-04T05:31:00.921Z,4.9
2019-02-04T05:31:50.886Z,4.9
2019-02-04T05:32:40.921Z,4.8
2019-02-04T05:33:31.054Z,4.8
2019-02-04T05:34:21.039Z,4.9
2019-02-04T05:35:10.813Z,4.9
2019-02-04T05:36:01.156Z,4.9
2019-02-04T05:36:51.831Z,4.8
2019-02-04T05:37:41.269Z,4.9
2019-02-04T05:38:31.341Z,4.8
2019-02-04T05:39:21.384Z,4.9
2019-02-04T05:40:11.451Z,4.9
2019-02-04T05:41:01.249Z,4.8
2019-02-04T05:41:51.311Z,4.8
2019-02-04T05:42:41.950Z,4.7
2019-02-04T05:43:31.691Z,4.7
2019-02-04T05:44:21.733Z,4.7
2019-02-04T05:45:11.589Z,4.6
2019-02-04T05:46:02.910Z,4.7
2019-02-04T05:46:54.577Z,4.7
2019-02-04T05:47:41.968Z,4.7
2019-02-04T05:48:31.837Z,4.7
2019-02-04T05:49:22.107Z,4.8
2019-02-04T05:50:11.869Z,4.8
2019-02-04T05:51:02.221Z,4.8
2019-02-04T05:51:55.033Z,4.8
2019-02-04T05:52:41.767Z,4.8
2019-02-04T05:53:32.438Z,4.9
2019-02-04T05:54:22.415Z,4.8
2019-02-04T05:55:14.367Z,4.9
2019-02-04T05:56:02.637Z,4.9
2019-02-04T05:56:52.305Z,4.9
2019-02-04T05:57:42.652Z,4.9
2019-02-04T05:58:35.365Z,5
2019-02-04T05:59:22.787Z,5
2019-02-04T06:00:12.562Z,5
2019-02-04T06:01:02.880Z,5.1
2019-02-04T06:01:52.942Z,5.1
2019-02-04T06:02:43.007Z,5.1
2019-02-04T06:03:32.502Z,5
2019-02-04T06:04:24.887Z,5
2019-02-04T06:06:20.775Z,4.8
2019-02-04T06:07:10.939Z,4.6
2019-02-04T06:08:00.878Z,4.6
2019-02-04T06:08:50.918Z,4.5
2019-02-04T06:09:41.044Z,4.5
2019-02-04T06:10:30.764Z,4.5
2019-02-04T06:11:20.834Z,4.4
2019-02-04T06:12:10.989Z,4.4
2019-02-04T06:13:15.926Z,4.4
2019-02-04T06:14:05.448Z,4.6
2019-02-04T06:14:43.103Z,4.7
2019-02-04T06:15:31.114Z,4.7
2019-02-04T06:16:21.451Z,4.7
2019-02-04T06:17:11.248Z,4.8
2019-02-04T06:18:01.308Z,4.8
2019-02-04T06:19:03.262Z,4.8
2019-02-04T06:19:40.850Z,4.6
2019-02-04T06:20:31.735Z,4.6
2019-02-04T06:21:21.506Z,4.6
2019-02-04T06:22:11.566Z,4.6
2019-02-04T06:23:02.093Z,4.7
2019-02-04T06:23:53.201Z,4.7
2019-02-04T06:24:41.761Z,4.8
2019-02-04T06:25:32.110Z,4.8
2019-02-04T06:26:22.191Z,4.8
2019-02-04T06:27:12.804Z,4.9
2019-02-04T06:28:01.984Z,5
2019-02-04T06:28:52.317Z,5
2019-02-04T06:29:42.383Z,5
2019-02-04T06:30:32.147Z,5
2019-02-04T06:31:22.587Z,5.1
2019-02-04T06:32:12.548Z,5.1
2019-02-04T06:33:03.862Z,5.1
2019-02-04T06:33:52.665Z,5.1
2019-02-04T06:34:42.807Z,5.1
2019-02-04T06:35:31.942Z,5.1
2019-02-04T06:36:22.279Z,5.1
2019-02-04T06:37:12.867Z,5.1
2019-02-04T06:38:02.954Z,5.1
2019-02-04T06:38:52.739Z,5.1
2019-02-04T06:39:42.999Z,5
2019-02-04T06:40:32.861Z,5
2019-02-04T06:41:23.192Z,5
2019-02-04T06:42:14.719Z,5
2019-02-04T06:43:03.292Z,5
2019-02-04T06:43:53.069Z,5
2019-02-04T06:44:43.389Z,5.1
2019-02-04T06:45:33.471Z,5.1
2019-02-04T06:46:22.999Z,5.1
2019-02-04T06:47:13.294Z,5.1
2019-02-04T06:48:03.102Z,5.1
2019-02-04T06:48:53.439Z,5.1
2019-02-04T06:49:43.769Z,5.1
2019-02-04T06:50:33.581Z,5
2019-02-04T06:51:24.834Z,5
2019-02-04T06:52:13.661Z,5
2019-02-04T06:53:04.313Z,4.9
2019-02-04T06:53:53.521Z,5
2019-02-04T06:54:43.837Z,4.9
2019-02-04T06:55:33.752Z,4.9
2019-02-04T06:56:23.951Z,4.9
2019-02-04T06:57:13.746Z,4.8
2019-02-04T06:58:03.833Z,4.8
2019-02-04T06:58:53.835Z,4.8
2019-02-04T06:59:44.446Z,4.7
2019-02-04T07:00:35.771Z,4.7
2019-02-04T07:01:24.573Z,4.8
2019-02-04T07:02:13.790Z,4.8
2019-02-04T07:03:04.476Z,4.8
2019-02-04T07:03:54.768Z,4.8
2019-02-04T07:06:21.410Z,4.8
2019-02-04T07:07:10.483Z,4.9
2019-02-04T07:08:00.553Z,4.9
2019-02-04T07:08:50.590Z,4.9
2019-02-04T07:09:41.563Z,4.9
2019-02-04T07:10:31.105Z,4.9
2019-02-04T07:11:21.039Z,4.9
2019-02-04T07:12:10.813Z,4.9
2019-02-04T07:13:01.187Z,4.9
2019-02-04T07:13:51.259Z,4.9
2019-02-04T07:14:41.012Z,4.9
2019-02-04T07:15:32.294Z,4.9
2019-02-04T07:16:21.502Z,5
2019-02-04T07:17:11.170Z,5
2019-02-04T07:18:04.470Z,5.1
2019-02-04T07:18:51.562Z,5.1
2019-02-04T07:19:41.349Z,5.1
2019-02-04T07:20:31.762Z,5.1
2019-02-04T07:21:23.884Z,5.1
2019-02-04T07:22:11.247Z,5.2
2019-02-04T07:23:01.605Z,5.2
2019-02-04T07:23:51.631Z,5.3
2019-02-04T07:24:45.954Z,5.3
2019-02-04T07:25:31.789Z,5.3
2019-02-04T07:26:22.191Z,5.3
2019-02-04T07:27:11.311Z,5.4
2019-02-04T07:28:01.953Z,5.4
2019-02-04T07:28:52.344Z,5.4
2019-02-04T07:29:42.304Z,5.4
2019-02-04T07:30:32.383Z,5.4
2019-02-04T07:31:22.239Z,5.4
2019-02-04T07:32:12.481Z,5.5
2019-02-04T07:33:01.984Z,5.5
2019-02-04T07:33:54.131Z,5.6
2019-02-04T07:34:42.758Z,5.6
2019-02-04T07:35:32.706Z,5.6
2019-02-04T07:36:22.778Z,5.6
2019-02-04T07:37:12.556Z,5.6
2019-02-04T07:38:02.351Z,5.6
2019-02-04T07:38:52.952Z,5.6
2019-02-04T07:39:42.717Z,5.6
2019-02-04T07:40:33.078Z,5.6
2019-02-04T07:41:23.213Z,5.6
2019-02-04T07:42:13.210Z,5.7
2019-02-04T07:43:05.005Z,5.7
2019-02-04T07:43:53.015Z,5.7
2019-02-04T07:44:43.350Z,5.8
2019-02-04T07:45:32.854Z,5.8
2019-02-04T07:46:26.077Z,5.8
2019-02-04T07:47:13.238Z,5.9
2019-02-04T07:48:03.300Z,5.9
2019-02-04T07:48:53.365Z,5.9
2019-02-04T07:49:43.702Z,5.9
2019-02-04T07:50:33.757Z,6
2019-02-04T07:51:23.787Z,6
2019-02-04T07:52:15.299Z,6
2019-02-04T07:53:03.926Z,5.9
2019-02-04T07:53:53.695Z,6
2019-02-04T07:54:44.019Z,6.1
2019-02-04T07:55:33.807Z,6.1
2019-02-04T07:56:23.879Z,6.2
2019-02-04T07:57:14.237Z,6.3
2019-02-04T07:58:03.719Z,6.3
2019-02-04T07:58:54.325Z,6.4
2019-02-04T07:59:44.359Z,6.4
2019-02-04T08:00:34.441Z,6.4
2019-02-04T08:01:26.099Z,6.4
2019-02-04T08:02:14.120Z,6.4
2019-02-04T08:03:04.336Z,6.5
2019-02-04T08:03:54.387Z,6.6
2019-02-04T08:04:44.529Z,6.7
2019-02-04T08:05:34.516Z,6.8
2019-02-04T08:06:24.282Z,6.9
2019-02-04T08:07:14.046Z,7
2019-02-04T08:08:04.969Z,7.1
2019-02-04T08:08:54.871Z,7.1
2019-02-04T08:09:44.845Z,7.2
2019-02-04T08:10:36.656Z,7.2
2019-02-04T08:11:24.382Z,7.2
2019-02-04T08:12:14.710Z,7.2
2019-02-04T08:13:04.203Z,7.2
2019-02-04T08:13:55.361Z,7.2
2019-02-04T08:14:48.008Z,7.2
2019-02-04T08:15:34.946Z,7.3
2019-02-04T08:16:25.274Z,7.3
2019-02-04T08:17:15.606Z,7.4
2019-02-04T08:18:05.686Z,7.6
2019-02-04T08:18:55.164Z,7.6
2019-02-04T08:19:50.423Z,7.6
2019-02-04T08:20:35.903Z,7.6
2019-02-04T08:21:25.045Z,7.6
2019-02-04T08:22:15.660Z,7.7
2019-02-04T08:23:05.876Z,7.6
2019-02-04T08:23:55.790Z,7.6
2019-02-04T08:24:46.110Z,7.6
2019-02-04T08:25:36.228Z,7.8
2019-02-04T08:26:25.828Z,8
2019-02-04T08:27:16.300Z,8.1
2019-02-04T08:28:06.333Z,8.2
2019-02-04T08:28:57.764Z,8.3
2019-02-04T08:29:46.445Z,8.3
2019-02-04T08:30:39.958Z,8.3
2019-02-04T08:31:26.675Z,8.1
2019-02-04T08:32:16.627Z,8.1
2019-02-04T08:33:06.712Z,8.1
2019-02-04T08:33:56.788Z,8.1
2019-02-04T08:34:46.639Z,8.3
2019-02-04T08:35:36.944Z,8.3
2019-02-04T08:36:26.945Z,8.3
2019-02-04T08:37:17.037Z,8.5
2019-02-04T08:38:08.959Z,8.6
2019-02-04T08:38:57.114Z,8.7
2019-02-04T08:39:47.025Z,8.6
2019-02-04T08:40:36.994Z,8.6
2019-02-04T08:41:27.357Z,8.7
2019-02-04T08:42:17.154Z,8.9
2019-02-04T08:43:07.517Z,9
2019-02-04T08:43:57.989Z,9.1
2019-02-04T08:44:46.976Z,9.1
2019-02-04T08:45:37.742Z,8.9
2019-02-04T08:46:27.404Z,9
2019-02-04T08:47:26.502Z,9
2019-02-04T08:48:07.343Z,8.9
2019-02-04T08:48:57.528Z,8.8
2019-02-04T08:50:02.235Z,8.9
2019-02-04T08:50:37.750Z,9.1
2019-02-04T08:51:27.713Z,9.1
2019-02-04T08:52:17.771Z,9.2
2019-02-04T08:53:09.298Z,9.3
2019-02-04T08:53:58.178Z,9.3
2019-02-04T08:54:47.985Z,9.4
2019-02-04T08:55:38.298Z,9.5
2019-02-04T08:56:28.087Z,9.5
2019-02-04T08:57:17.680Z,9.4
2019-02-04T08:58:08.541Z,9.3
2019-02-04T08:58:57.823Z,9.5
2019-02-04T08:59:48.303Z,9.6
2019-02-04T09:00:38.369Z,9.4
2019-02-04T09:01:28.728Z,9.5
2019-02-04T09:02:20.208Z,9.4
2019-02-04T09:03:08.350Z,9.5
2019-02-04T09:03:58.847Z,9.6
2019-02-04T09:04:48.953Z,9.6
2019-02-04T09:05:38.700Z,9.8
2019-02-04T09:06:28.597Z,9.8
2019-02-04T09:07:18.858Z,9.7
2019-02-04T09:08:10.150Z,9.7
2019-02-04T09:08:58.922Z,9.6
2019-02-04T09:09:48.761Z,9.8
2019-02-04T09:10:39.377Z,9.9
2019-02-04T09:11:29.087Z,10
2019-02-04T09:12:19.208Z,10.1
2019-02-04T09:13:08.939Z,10.1
2019-02-04T09:13:59.258Z,9.9
2019-02-04T09:14:49.611Z,9.9
2019-02-04T09:15:39.396Z,9.9
2019-02-04T09:16:29.257Z,9.9
2019-02-04T09:17:20.755Z,10.1
2019-02-04T09:18:08.734Z,10.4
2019-02-04T09:18:59.870Z,10.5
2019-02-04T09:19:49.706Z,10.6
2019-02-04T09:20:40.005Z,10.9
2019-02-04T09:21:29.630Z,11.1
2019-02-04T09:22:20.227Z,11.1
2019-02-04T09:23:10.129Z,11.2
2019-02-04T09:24:00.244Z,11.3
2019-02-04T09:24:49.741Z,11.4
2019-02-04T09:25:40.137Z,11.4
2019-02-04T09:26:31.150Z,11.3
2019-02-04T09:27:20.208Z,11.5
2019-02-04T09:28:10.013Z,11.4
2019-02-04T09:29:00.598Z,11.3
2019-02-04T09:29:50.671Z,11.3
2019-02-04T09:30:40.728Z,11.3
2019-02-04T09:31:30.199Z,11.3
2019-02-04T09:32:21.453Z,11.1
2019-02-04T09:33:10.596Z,11.2
2019-02-04T09:34:00.378Z,11.2
2019-02-04T09:34:50.738Z,11.3
2019-02-04T09:35:39.928Z,11.3
2019-02-04T09:36:31.116Z,11.3
2019-02-04T09:37:21.208Z,11.1
2019-02-04T09:38:11.020Z,11.3
2019-02-04T09:39:01.446Z,11.4
2019-02-04T09:39:51.131Z,11.5
2019-02-04T09:40:41.167Z,11.6
2019-02-04T09:41:32.284Z,11.6
2019-02-04T09:42:21.285Z,11.7
2019-02-04T09:43:11.600Z,11.6
2019-02-04T09:44:00.879Z,11.6
2019-02-04T09:44:51.726Z,11.9
2019-02-04T09:45:41.513Z,12
2019-02-04T09:46:31.836Z,11.8
2019-02-04T09:47:21.783Z,11.8
2019-02-04T09:48:11.655Z,11.5
2019-02-04T09:49:02.009Z,11.6
2019-02-04T09:49:52.045Z,11.6
2019-02-04T09:50:43.726Z,11.8
2019-02-04T09:51:31.912Z,11.9
2019-02-04T09:52:21.686Z,12.1
2019-02-04T09:53:12.025Z,12.1
2019-02-04T09:54:02.084Z,12.1
2019-02-04T09:54:51.852Z,12.1
2019-02-04T09:55:42.469Z,11.6
2019-02-04T09:56:32.528Z,11.5
2019-02-04T09:57:22.585Z,11.3
2019-02-04T09:58:12.359Z,11.3
2019-02-04T09:59:02.634Z,11.6
2019-02-04T09:59:55.227Z,11.7
2019-02-04T10:00:42.518Z,11.9
2019-02-04T10:01:32.544Z,11.7
2019-02-04T10:02:22.338Z,11.5
2019-02-04T10:03:12.486Z,11.8
2019-02-04T10:04:03.041Z,11.9
2019-02-04T10:04:52.769Z,11.7
2019-02-04T10:07:20.001Z,11.6
2019-02-04T10:08:10.134Z,11.7
2019-02-04T10:09:02.363Z,11.8
2019-02-04T10:09:50.432Z,12
2019-02-04T10:10:40.528Z,12.2
2019-02-04T10:11:30.555Z,12.4
2019-02-04T10:12:20.910Z,12.4
2019-02-04T10:13:10.678Z,12.3
2019-02-04T10:14:00.738Z,12.3
2019-02-04T10:14:50.895Z,12.3
2019-02-04T10:15:40.809Z,12.2
2019-02-04T10:16:31.433Z,12.3
2019-02-04T10:17:21.373Z,12.3
2019-02-04T10:18:12.878Z,12.3
2019-02-04T10:19:00.679Z,12.3
2019-02-04T10:19:51.724Z,12.1
2019-02-04T10:20:40.888Z,12.1
2019-02-04T10:21:31.679Z,11.9
2019-02-04T10:22:21.821Z,11.8
2019-02-04T10:23:11.495Z,11.8
2019-02-04T10:24:01.874Z,11.8
2019-02-04T10:24:51.653Z,11.9
2019-02-04T10:25:41.842Z,12
2019-02-04T10:26:31.772Z,12.1
2019-02-04T10:27:23.704Z,11.8
2019-02-04T10:28:12.297Z,11.8
2019-02-04T10:29:02.043Z,11.7
2019-02-04T10:29:52.289Z,11.9
2019-02-04T10:30:41.533Z,12
2019-02-04T10:31:32.072Z,11.9
2019-02-04T10:32:22.171Z,11.9
2019-02-04T10:33:12.665Z,12
2019-02-04T10:34:02.405Z,12.1
2019-02-04T10:34:52.379Z,12.1
2019-02-04T10:35:42.731Z,12.1
2019-02-04T10:36:33.290Z,12.1
2019-02-04T10:37:23.026Z,12.1
2019-02-04T10:38:12.961Z,11.9
2019-02-04T10:39:02.803Z,11.9
2019-02-04T10:39:53.021Z,11.9
2019-02-04T10:40:42.768Z,11.9
2019-02-04T10:41:32.556Z,11.8
2019-02-04T10:42:23.343Z,11.8
2019-02-04T10:43:13.309Z,11.8
2019-02-04T10:44:03.452Z,11.9
2019-02-04T10:44:52.651Z,11.9
2019-02-04T10:45:44.559Z,12
2019-02-04T10:46:33.111Z,12.1
2019-02-04T10:47:22.980Z,12.3
2019-02-04T10:48:13.703Z,12.1
2019-02-04T10:49:03.161Z,12.1
2019-02-04T10:49:53.495Z,12.1
2019-02-04T10:50:50.096Z,12.1
2019-02-04T10:51:33.959Z,12.1
2019-02-04T10:52:23.596Z,11.9
2019-02-04T10:53:13.786Z,12.1
2019-02-04T10:54:04.052Z,12.1
2019-02-04T10:54:55.686Z,12.2
2019-02-04T10:55:44.216Z,12.2
2019-02-04T10:56:33.810Z,12.3
2019-02-04T10:57:24.297Z,12.4
2019-02-04T10:58:14.227Z,12.4
2019-02-04T10:59:04.485Z,12.4
2019-02-04T10:59:54.206Z,12.5
2019-02-04T11:00:44.364Z,12.8
2019-02-04T11:01:34.383Z,12.8
2019-02-04T11:02:24.428Z,12.9
2019-02-04T11:03:14.335Z,12.9
2019-02-04T11:04:05.833Z,12.8
2019-02-04T11:04:54.418Z,12.8
2019-02-04T11:05:45.087Z,12.8
2019-02-04T11:06:34.191Z,12.8
2019-02-04T11:07:24.334Z,12.9
2019-02-04T11:08:15.298Z,12.9
2019-02-04T11:09:04.923Z,13
2019-02-04T11:09:55.277Z,13
2019-02-04T11:10:44.961Z,12.9
2019-02-04T11:11:35.207Z,12.8
2019-02-04T11:12:25.101Z,12.7
2019-02-04T11:13:16.698Z,12.7
2019-02-04T11:14:05.391Z,12.8
2019-02-04T11:14:55.286Z,12.9
2019-02-04T11:15:45.469Z,12.9
2019-02-04T11:16:35.494Z,13.1
2019-02-04T11:17:25.587Z,13.2
2019-02-04T11:18:15.489Z,13.1
2019-02-04T11:19:05.472Z,13.1
2019-02-04T11:19:55.798Z,13.2
2019-02-04T11:20:58.547Z,13.3
2019-02-04T11:21:35.346Z,13.1
2019-02-04T11:22:27.216Z,13.2
2019-02-04T11:23:15.509Z,13.1
2019-02-04T11:24:06.147Z,13.2
2019-02-04T11:24:56.267Z,13.2
2019-02-04T11:25:45.925Z,13.2
2019-02-04T11:26:35.913Z,13.2
2019-02-04T11:27:26.358Z,13.2
2019-02-04T11:28:16.290Z,13.1
2019-02-04T11:29:06.324Z,13
2019-02-04T11:29:56.510Z,13.1
2019-02-04T11:30:46.659Z,13.1
2019-02-04T11:31:37.202Z,12.9
2019-02-04T11:32:26.480Z,12.8
2019-02-04T11:33:16.485Z,12.6
2019-02-04T11:34:06.590Z,12.6
2019-02-04T11:34:56.269Z,12.8
2019-02-04T11:35:46.951Z,13.1
2019-02-04T11:36:37.099Z,13
2019-02-04T11:37:26.455Z,13.1